Time;durP1;ratioP1;P1;durP2;ratioP2;P2;SDS_P1;SDS_P2;PMS_P1;PMS_P2;Temp;Humidity;BMP_temperature;BMP_pressure;BME280_temperature;BME280_humidity;BME280_pressure;Samples;Min_cycle;Max_cycle;Signal;HPM_P1;HPM_P2
2022/03/05 00:00:26;;;;;;;31.00;12.95;;;;;;;;;;5102784;27;20080;-73
2022/03/05 00:02:51;;;;;;;34.88;13.38;;;;;;;;;;5106684;27;20065;-73
2022/03/05 00:05:16;;;;;;;34.88;13.70;;;;;;;;;;5104647;27;20451;-73
2022/03/05 00:07:41;;;;;;;38.78;14.63;;;;;;;;;;5098771;27;20088;-73
2022/03/05 00:10:07;;;;;;;36.83;14.40;;;;;;;;;;5109519;27;20026;-74
2022/03/05 00:12:32;;;;;;;34.15;13.90;;;;;;;;;;5102298;28;20535;-73
2022/03/05 00:14:59;;;;;;;34.05;13.68;;;;;;;;;;5108765;27;20119;-73
2022/03/05 00:17:24;;;;;;;31.20;13.73;;;;;;;;;;5109499;27;20042;-73
2022/03/05 00:19:49;;;;;;;37.67;13.45;;;;;;;;;;5108268;27;20099;-73
2022/03/05 00:22:15;;;;;;;38.00;14.65;;;;;;;;;;5104374;27;20012;-73
2022/03/05 00:24:40;;;;;;;32.90;13.93;;;;;;;;;;5110201;27;20047;-73
2022/03/05 00:27:06;;;;;;;35.67;12.95;;;;;;;;;;5122704;27;20043;-73
2022/03/05 00:29:31;;;;;;;27.17;12.32;;;;;;;;;;5102852;27;20035;-73
2022/03/05 00:31:56;;;;;;;34.55;13.65;;;;;;;;;;5088793;27;20537;-73
2022/03/05 00:34:22;;;;;;;37.17;13.77;;;;;;;;;;5104204;27;20084;-73
2022/03/05 00:36:48;;;;;;;30.45;12.80;;;;;;;;;;5098950;27;20416;-73
2022/03/05 00:39:13;;;;;;;38.85;13.02;;;;;;;;;;5100709;27;20032;-73
2022/03/05 00:41:38;;;;;;;35.22;14.23;;;;;;;;;;5100429;28;20043;-73
2022/03/05 00:44:04;;;;;;;37.90;14.55;;;;;;;;;;5104121;27;20086;-73
2022/03/05 00:46:30;;;;;;;31.77;13.18;;;;;;;;;;5102946;27;20502;-73
2022/03/05 00:48:55;;;;;;;30.70;13.43;;;;;;;;;;5099497;28;20039;-73
2022/03/05 00:51:20;;;;;;;35.30;13.40;;;;;;;;;;5102801;27;20092;-73
2022/03/05 00:53:46;;;;;;;30.90;12.40;;;;;;;;;;5107395;27;20039;-72
2022/03/05 00:56:11;;;;;;;34.15;14.35;;;;;;;;;;5101949;27;20066;-73
2022/03/05 00:58:36;;;;;;;40.13;13.57;;;;;;;;;;5095317;28;20036;-73
2022/03/05 01:01:02;;;;;;;36.90;13.90;;;;;;;;;;5104470;27;20035;-73
2022/03/05 01:03:27;;;;;;;40.60;14.60;;;;;;;;;;5078098;28;20039;-73
2022/03/05 01:05:54;;;;;;;30.77;13.38;;;;;;;;;;5089073;28;20489;-73
2022/03/05 01:08:20;;;;;;;36.33;14.02;;;;;;;;;;5107191;27;20581;-73
2022/03/05 01:10:45;;;;;;;32.67;13.40;;;;;;;;;;5092966;28;20115;-73
2022/03/05 01:13:11;;;;;;;35.80;14.15;;;;;;;;;;5098340;28;20107;-73
2022/03/05 01:15:36;;;;;;;30.45;13.30;;;;;;;;;;5108261;27;20038;-73
2022/03/05 01:18:02;;;;;;;36.80;14.00;;;;;;;;;;5107368;28;20043;-73
2022/03/05 01:20:28;;;;;;;38.00;13.90;;;;;;;;;;5108500;27;20027;-73
2022/03/05 01:22:53;;;;;;;38.42;13.77;;;;;;;;;;5104010;27;20699;-73
2022/03/05 01:25:19;;;;;;;35.40;13.48;;;;;;;;;;5104150;28;20012;-72
2022/03/05 01:27:44;;;;;;;37.42;14.13;;;;;;;;;;5099715;28;20039;-73
2022/03/05 01:30:10;;;;;;;36.00;14.07;;;;;;;;;;5106742;27;20036;-73
2022/03/05 01:32:35;;;;;;;37.03;14.00;;;;;;;;;;5124066;27;20031;-73
2022/03/05 01:35:01;;;;;;;38.10;14.65;;;;;;;;;;5108020;27;20039;-73
2022/03/05 01:37:26;;;;;;;37.67;14.63;;;;;;;;;;5100765;28;20027;-73
2022/03/05 01:39:51;;;;;;;37.90;14.90;;;;;;;;;;5107018;27;20035;-73
2022/03/05 01:42:21;;;;;;;36.30;14.50;;;;;;;;;;5100790;27;20048;-73
2022/03/05 01:44:46;;;;;;;37.65;14.82;;;;;;;;;;5116208;27;20032;-73
2022/03/05 01:47:12;;;;;;;31.52;14.05;;;;;;;;;;5099146;28;20056;-73
2022/03/05 01:49:37;;;;;;;41.08;14.48;;;;;;;;;;5103452;28;20106;-73
2022/03/05 01:52:03;;;;;;;34.33;14.23;;;;;;;;;;5102130;28;20051;-73
2022/03/05 01:54:30;;;;;;;38.00;13.50;;;;;;;;;;5103103;27;20039;-73
2022/03/05 01:56:56;;;;;;;36.72;14.02;;;;;;;;;;5101908;27;20543;-73
2022/03/05 01:59:22;;;;;;;34.67;13.90;;;;;;;;;;5095672;27;20390;-73
2022/03/05 02:01:48;;;;;;;34.33;13.80;;;;;;;;;;5076248;28;20023;-73
2022/03/05 02:04:13;;;;;;;37.92;14.40;;;;;;;;;;5105897;28;20024;-73
2022/03/05 02:06:38;;;;;;;38.28;15.70;;;;;;;;;;5089772;28;20032;-73
2022/03/05 02:09:04;;;;;;;35.40;14.38;;;;;;;;;;5082698;28;20059;-73
2022/03/05 02:11:29;;;;;;;33.10;13.90;;;;;;;;;;5083912;28;20040;-73
2022/03/05 02:13:55;;;;;;;32.03;12.77;;;;;;;;;;5080297;28;20042;-74
2022/03/05 02:16:22;;;;;;;35.50;14.07;;;;;;;;;;5087459;28;20088;-73
2022/03/05 02:18:52;;;;;;;33.60;14.05;;;;;;;;;;5091574;28;20040;-73
2022/03/05 02:21:19;;;;;;;38.13;15.40;;;;;;;;;;5070143;28;20036;-73
2022/03/05 02:23:44;;;;;;;35.35;12.35;;;;;;;;;;5084972;28;20702;-73
2022/03/05 02:26:10;;;;;;;36.92;13.15;;;;;;;;;;5087626;27;20059;-73
2022/03/05 02:28:36;;;;;;;35.30;14.60;;;;;;;;;;5085573;28;20020;-73
2022/03/05 02:31:03;;;;;;;35.08;14.30;;;;;;;;;;5082534;28;20096;-73
2022/03/05 02:33:28;;;;;;;34.25;13.60;;;;;;;;;;5086170;27;20051;-73
2022/03/05 02:35:54;;;;;;;44.53;15.10;;;;;;;;;;5081316;27;20032;-73
2022/03/05 02:38:22;;;;;;;37.72;14.23;;;;;;;;;;5092657;27;20050;-73
2022/03/05 02:40:49;;;;;;;39.38;14.25;;;;;;;;;;5107099;27;20034;-73
2022/03/05 02:43:15;;;;;;;34.88;14.25;;;;;;;;;;5107142;28;20031;-73
2022/03/05 02:45:41;;;;;;;37.50;13.48;;;;;;;;;;5108935;27;20519;-73
2022/03/05 02:48:13;;;;;;;31.15;13.52;;;;;;;;;;5103190;27;20031;-73
2022/03/05 02:50:39;;;;;;;31.20;12.93;;;;;;;;;;5082794;28;20047;-73
2022/03/05 02:53:05;;;;;;;34.50;12.85;;;;;;;;;;5112725;27;20043;-72
2022/03/05 02:55:31;;;;;;;36.00;13.98;;;;;;;;;;5096037;28;20027;-72
2022/03/05 02:57:56;;;;;;;32.25;12.88;;;;;;;;;;5106268;27;20044;-73
2022/03/05 03:00:22;;;;;;;33.75;13.45;;;;;;;;;;5102869;28;20434;-73
2022/03/05 03:02:49;;;;;;;33.60;13.45;;;;;;;;;;5102800;28;20111;-73
2022/03/05 03:05:16;;;;;;;37.65;13.85;;;;;;;;;;5100843;27;20020;-73
2022/03/05 03:07:41;;;;;;;35.70;13.93;;;;;;;;;;5081975;28;20036;-73
2022/03/05 03:10:08;;;;;;;38.38;14.13;;;;;;;;;;5110673;27;20068;-73
2022/03/05 03:12:34;;;;;;;33.42;14.18;;;;;;;;;;5105407;28;20126;-73
2022/03/05 03:14:59;;;;;;;33.50;13.70;;;;;;;;;;5119986;27;20723;-73
2022/03/05 03:17:24;;;;;;;32.58;14.65;;;;;;;;;;5095146;27;20039;-73
2022/03/05 03:19:50;;;;;;;39.45;13.30;;;;;;;;;;5084433;28;20020;-73
2022/03/05 03:22:16;;;;;;;35.00;14.07;;;;;;;;;;5104902;28;20011;-73
2022/03/05 03:24:42;;;;;;;36.17;14.73;;;;;;;;;;5114681;27;20036;-73
2022/03/05 03:27:08;;;;;;;36.85;15.40;;;;;;;;;;5108632;27;20412;-73
2022/03/05 03:29:33;;;;;;;39.83;15.07;;;;;;;;;;5104315;27;20119;-73
2022/03/05 03:31:59;;;;;;;34.30;13.50;;;;;;;;;;5107270;27;20164;-73
2022/03/05 03:34:24;;;;;;;34.67;13.80;;;;;;;;;;5107577;27;20020;-73
2022/03/05 03:36:50;;;;;;;33.33;13.45;;;;;;;;;;5105342;27;20069;-73
2022/03/05 03:39:16;;;;;;;34.42;13.80;;;;;;;;;;5110211;27;20032;-73
2022/03/05 03:41:42;;;;;;;33.58;14.40;;;;;;;;;;5109884;27;20048;-73
2022/03/05 03:44:07;;;;;;;33.83;13.07;;;;;;;;;;5108617;27;20024;-73
2022/03/05 03:46:33;;;;;;;30.42;12.60;;;;;;;;;;5106488;27;20022;-72
2022/03/05 03:48:59;;;;;;;32.17;14.02;;;;;;;;;;5106562;28;20071;-74
2022/03/05 03:51:24;;;;;;;36.08;14.23;;;;;;;;;;5105995;27;20024;-73
2022/03/05 03:53:49;;;;;;;34.60;13.98;;;;;;;;;;5108330;27;20047;-73
2022/03/05 03:56:14;;;;;;;32.90;14.18;;;;;;;;;;5125710;27;20039;-73
2022/03/05 03:58:41;;;;;;;36.83;15.77;;;;;;;;;;5101329;27;20090;-73
2022/03/05 04:01:06;;;;;;;37.88;14.25;;;;;;;;;;5105884;27;20015;-73
2022/03/05 04:03:32;;;;;;;41.08;15.32;;;;;;;;;;5109228;27;20051;-73
2022/03/05 04:05:57;;;;;;;38.35;15.13;;;;;;;;;;5108804;27;20055;-73
2022/03/05 04:11:07;;;;;;;36.28;14.57;;;;;;;;;;5109996;27;20587;-73
2022/03/05 04:13:32;;;;;;;38.22;14.52;;;;;;;;;;5109060;28;20480;-72
2022/03/05 04:15:58;;;;;;;36.33;14.00;;;;;;;;;;5096097;28;20149;-73
2022/03/05 04:18:23;;;;;;;36.35;14.77;;;;;;;;;;5098056;28;20080;-72
2022/03/05 04:20:48;;;;;;;37.22;15.27;;;;;;;;;;5098767;28;20090;-73
2022/03/05 04:23:14;;;;;;;35.50;13.38;;;;;;;;;;5095632;27;20131;-73
2022/03/05 04:25:39;;;;;;;35.72;14.70;;;;;;;;;;5107354;27;20663;-73
2022/03/05 04:28:05;;;;;;;34.13;13.50;;;;;;;;;;5105932;28;20465;-73
2022/03/05 04:30:30;;;;;;;34.70;14.00;;;;;;;;;;5099738;28;20043;-73
2022/03/05 04:32:55;;;;;;;37.90;14.68;;;;;;;;;;5095157;28;20408;-73
2022/03/05 04:35:21;;;;;;;36.70;14.52;;;;;;;;;;5072472;28;20618;-73
2022/03/05 04:37:47;;;;;;;40.42;15.57;;;;;;;;;;5081560;28;20024;-73
2022/03/05 04:40:12;;;;;;;33.00;13.63;;;;;;;;;;5085438;28;20042;-73
2022/03/05 04:42:38;;;;;;;32.53;14.00;;;;;;;;;;5098767;27;20154;-73
2022/03/05 04:45:05;;;;;;;36.78;13.95;;;;;;;;;;5104438;28;20036;-73
2022/03/05 04:47:30;;;;;;;38.95;15.10;;;;;;;;;;5113601;27;20035;-73
2022/03/05 04:49:56;;;;;;;39.30;15.52;;;;;;;;;;5104826;27;20046;-73
2022/03/05 04:52:21;;;;;;;40.95;15.10;;;;;;;;;;5109428;28;20016;-73
2022/03/05 04:54:47;;;;;;;36.33;14.90;;;;;;;;;;5121642;27;20118;-73
2022/03/05 04:57:12;;;;;;;34.40;14.05;;;;;;;;;;5111633;27;20035;-74
2022/03/05 04:59:37;;;;;;;34.40;14.13;;;;;;;;;;5103750;28;20039;-73
2022/03/05 05:02:03;;;;;;;37.55;14.10;;;;;;;;;;5098624;28;20043;-73
2022/03/05 05:04:29;;;;;;;33.08;13.93;;;;;;;;;;5081825;28;20030;-73
2022/03/05 05:06:54;;;;;;;34.72;14.98;;;;;;;;;;5103798;27;20053;-74
2022/03/05 05:09:20;;;;;;;34.67;13.95;;;;;;;;;;5107677;27;20071;-75
2022/03/05 05:11:45;;;;;;;36.28;14.43;;;;;;;;;;5109544;27;20039;-75
2022/03/05 05:14:13;;;;;;;35.05;14.05;;;;;;;;;;5111960;27;20028;-75
2022/03/05 05:16:38;;;;;;;39.40;15.23;;;;;;;;;;5103227;27;20025;-75
2022/03/05 05:21:47;;;;;;;34.53;14.45;;;;;;;;;;5103378;27;20038;-75
2022/03/05 05:24:13;;;;;;;36.92;14.52;;;;;;;;;;5102790;28;20103;-75
2022/03/05 05:26:38;;;;;;;35.88;13.55;;;;;;;;;;5107635;28;20059;-76
2022/03/05 05:29:04;;;;;;;38.08;14.52;;;;;;;;;;5108187;27;20056;-75
2022/03/05 05:31:29;;;;;;;37.58;14.15;;;;;;;;;;5108983;28;20019;-76
2022/03/05 05:33:54;;;;;;;41.88;14.60;;;;;;;;;;5108398;27;20145;-75
2022/03/05 05:36:20;;;;;;;37.35;14.48;;;;;;;;;;5108585;28;20035;-75
2022/03/05 05:38:45;;;;;;;39.00;14.98;;;;;;;;;;5104176;28;20028;-76
2022/03/05 05:41:12;;;;;;;31.05;12.85;;;;;;;;;;5103929;27;20449;-75
2022/03/05 05:43:38;;;;;;;32.67;13.13;;;;;;;;;;5100331;28;20492;-75
2022/03/05 05:46:03;;;;;;;31.50;12.10;;;;;;;;;;5104700;28;20062;-75
2022/03/05 05:48:29;;;;;;;31.13;13.35;;;;;;;;;;5108203;27;20038;-76
2022/03/05 05:50:54;;;;;;;37.40;13.85;;;;;;;;;;5106887;27;20461;-76
2022/03/05 05:53:19;;;;;;;33.53;13.05;;;;;;;;;;5105180;27;20417;-75
2022/03/05 05:55:44;;;;;;;33.25;12.98;;;;;;;;;;5089438;28;20024;-75
2022/03/05 05:58:10;;;;;;;31.63;13.18;;;;;;;;;;5107739;27;20516;-76
2022/03/05 06:00:36;;;;;;;29.75;11.65;;;;;;;;;;5106652;27;20584;-75
2022/03/05 06:03:01;;;;;;;30.20;12.40;;;;;;;;;;5108123;28;20520;-76
2022/03/05 06:05:26;;;;;;;35.50;13.43;;;;;;;;;;5106579;27;20574;-75
2022/03/05 06:07:51;;;;;;;34.58;13.48;;;;;;;;;;5116350;27;20027;-75
2022/03/05 06:10:17;;;;;;;35.08;13.57;;;;;;;;;;5101539;28;20058;-75
2022/03/05 06:12:44;;;;;;;33.17;14.07;;;;;;;;;;5105369;28;20118;-75
2022/03/05 06:15:10;;;;;;;33.60;13.10;;;;;;;;;;5105889;27;20128;-75
2022/03/05 06:17:36;;;;;;;31.23;13.25;;;;;;;;;;5117702;27;20530;-76
2022/03/05 06:20:01;;;;;;;38.17;15.38;;;;;;;;;;5122763;27;20032;-75
2022/03/05 06:22:26;;;;;;;35.40;13.15;;;;;;;;;;5108433;28;20094;-76
2022/03/05 06:24:52;;;;;;;39.03;15.30;;;;;;;;;;5106545;27;20031;-76
2022/03/05 06:27:17;;;;;;;41.85;15.82;;;;;;;;;;5109578;27;20043;-76
2022/03/05 06:29:43;;;;;;;40.38;16.98;;;;;;;;;;5111071;28;20036;-76
2022/03/05 06:32:08;;;;;;;36.45;16.45;;;;;;;;;;5097552;28;20387;-76
2022/03/05 06:34:33;;;;;;;37.45;15.27;;;;;;;;;;5081759;28;20024;-75
2022/03/05 06:37:00;;;;;;;39.50;15.38;;;;;;;;;;5086243;28;20036;-75
2022/03/05 06:39:26;;;;;;;42.20;14.80;;;;;;;;;;5084592;28;20131;-75
2022/03/05 06:41:51;;;;;;;32.60;15.15;;;;;;;;;;5087966;28;20115;-76
2022/03/05 06:44:17;;;;;;;33.75;14.27;;;;;;;;;;5091687;28;20055;-76
2022/03/05 06:46:42;;;;;;;39.80;15.38;;;;;;;;;;5091546;28;20370;-75
2022/03/05 06:49:07;;;;;;;36.42;14.60;;;;;;;;;;5110042;28;20027;-76
2022/03/05 06:51:32;;;;;;;42.40;15.85;;;;;;;;;;5104922;27;20066;-75
2022/03/05 06:53:58;;;;;;;40.05;15.52;;;;;;;;;;5109214;27;20528;-75
2022/03/05 06:56:23;;;;;;;44.85;15.07;;;;;;;;;;5102714;27;20127;-76
2022/03/05 06:58:49;;;;;;;39.13;15.57;;;;;;;;;;5106389;27;20048;-75
2022/03/05 07:01:14;;;;;;;38.47;15.05;;;;;;;;;;5089027;28;20465;-75
2022/03/05 07:03:40;;;;;;;38.80;15.13;;;;;;;;;;5108624;27;20129;-75
2022/03/05 07:06:06;;;;;;;39.20;15.63;;;;;;;;;;5119530;27;20063;-75
2022/03/05 07:08:31;;;;;;;40.25;15.57;;;;;;;;;;5123508;27;20618;-75
2022/03/05 07:10:57;;;;;;;38.95;15.75;;;;;;;;;;5102733;27;20522;-75
2022/03/05 07:13:22;;;;;;;40.25;15.30;;;;;;;;;;5114323;27;20114;-75
2022/03/05 07:15:47;;;;;;;35.63;14.30;;;;;;;;;;5114447;27;20432;-75
2022/03/05 07:18:13;;;;;;;42.22;16.05;;;;;;;;;;5105008;28;20043;-75
2022/03/05 07:20:38;;;;;;;42.53;16.40;;;;;;;;;;5104434;27;20489;-76
2022/03/05 07:23:04;;;;;;;40.90;14.77;;;;;;;;;;5109892;27;20035;-75
2022/03/05 07:25:36;;;;;;;36.67;14.98;;;;;;;;;;5100330;27;20027;-75
2022/03/05 07:28:05;;;;;;;38.50;15.15;;;;;;;;;;5107790;27;20028;-75
2022/03/05 07:30:30;;;;;;;38.22;14.43;;;;;;;;;;5105436;27;20114;-76
2022/03/05 07:32:55;;;;;;;40.60;15.02;;;;;;;;;;5106197;27;20119;-76
2022/03/05 07:35:21;;;;;;;36.95;15.52;;;;;;;;;;5104211;28;20042;-76
2022/03/05 07:37:46;;;;;;;39.53;15.10;;;;;;;;;;5102308;28;20034;-75
2022/03/05 07:40:12;;;;;;;33.63;13.38;;;;;;;;;;5101755;28;20056;-76
2022/03/05 07:42:37;;;;;;;39.83;15.52;;;;;;;;;;5109358;27;20051;-76
2022/03/05 07:45:03;;;;;;;43.95;16.27;;;;;;;;;;5107205;28;20085;-75
2022/03/05 07:47:28;;;;;;;45.60;15.73;;;;;;;;;;5107561;27;20039;-75
2022/03/05 07:49:54;;;;;;;33.30;15.05;;;;;;;;;;5103778;27;20500;-75
2022/03/05 07:52:19;;;;;;;41.67;15.70;;;;;;;;;;5103589;28;20028;-76
2022/03/05 07:54:45;;;;;;;38.63;15.65;;;;;;;;;;5100126;28;20036;-75
2022/03/05 07:57:10;;;;;;;35.67;14.27;;;;;;;;;;5102180;27;20126;-75
2022/03/05 07:59:35;;;;;;;38.35;14.68;;;;;;;;;;5106571;27;20394;-75
2022/03/05 08:02:01;;;;;;;43.72;16.45;;;;;;;;;;5105464;27;20032;-75
2022/03/05 08:04:26;;;;;;;48.30;19.58;;;;;;;;;;5103728;27;20020;-75
2022/03/05 08:06:51;;;;;;;41.17;15.60;;;;;;;;;;5100243;27;20557;-75
2022/03/05 08:09:17;;;;;;;38.28;16.48;;;;;;;;;;5094247;27;20165;-75
2022/03/05 08:11:42;;;;;;;44.80;16.67;;;;;;;;;;5098655;27;20039;-76
2022/03/05 08:14:07;;;;;;;39.80;16.20;;;;;;;;;;5106501;27;20046;-76
2022/03/05 08:16:33;;;;;;;38.15;15.48;;;;;;;;;;5106382;28;20023;-75
2022/03/05 08:18:59;;;;;;;41.28;15.52;;;;;;;;;;5099289;27;20035;-76
2022/03/05 08:21:26;;;;;;;39.47;13.85;;;;;;;;;;5104893;27;20028;-76
2022/03/05 08:23:52;;;;;;;35.40;14.52;;;;;;;;;;5101354;27;20066;-76
2022/03/05 08:26:18;;;;;;;38.22;15.85;;;;;;;;;;5109380;27;20779;-75
2022/03/05 08:28:44;;;;;;;34.75;14.13;;;;;;;;;;5103786;27;20054;-76
2022/03/05 08:31:11;;;;;;;40.30;15.88;;;;;;;;;;5102646;28;20028;-76
2022/03/05 08:33:37;;;;;;;39.28;14.43;;;;;;;;;;5105233;27;20036;-75
2022/03/05 08:36:03;;;;;;;37.67;14.85;;;;;;;;;;5106925;28;20111;-75
2022/03/05 08:38:31;;;;;;;39.33;15.18;;;;;;;;;;5103907;27;20073;-76
2022/03/05 08:40:58;;;;;;;44.45;16.08;;;;;;;;;;5107014;27;20615;-76
2022/03/05 08:43:23;;;;;;;43.10;16.25;;;;;;;;;;5099624;28;20016;-75
2022/03/05 08:45:48;;;;;;;46.40;16.67;;;;;;;;;;5105380;27;20039;-75
2022/03/05 08:48:14;;;;;;;44.50;17.20;;;;;;;;;;5107687;27;20082;-75
2022/03/05 08:50:39;;;;;;;37.92;14.60;;;;;;;;;;5106411;28;20039;-76
2022/03/05 08:53:04;;;;;;;47.00;16.85;;;;;;;;;;5098291;27;20092;-75
2022/03/05 08:55:30;;;;;;;45.53;17.25;;;;;;;;;;5094808;28;20020;-76
2022/03/05 08:57:55;;;;;;;42.65;16.58;;;;;;;;;;5100866;27;20047;-80
2022/03/05 09:00:20;;;;;;;43.50;17.55;;;;;;;;;;5104711;28;20036;-82
2022/03/05 09:02:46;;;;;;;44.53;15.70;;;;;;;;;;5106669;27;20031;-77
2022/03/05 09:05:13;;;;;;;29.23;12.43;;;;;;;;;;5102006;28;20032;-74
2022/03/05 09:07:39;;;;;;;50.15;17.83;;;;;;;;;;5103872;27;20027;-77
2022/03/05 09:10:05;;;;;;;41.75;18.52;;;;;;;;;;5101442;28;20035;-78
2022/03/05 09:12:30;;;;;;;49.35;19.70;;;;;;;;;;5098943;27;20050;-78
2022/03/05 09:14:56;;;;;;;43.72;18.45;;;;;;;;;;5090672;28;20408;-78
2022/03/05 09:17:22;;;;;;;42.03;16.40;;;;;;;;;;5096452;28;20031;-77
2022/03/05 09:19:47;;;;;;;39.88;17.25;;;;;;;;;;5099641;27;20020;-79
2022/03/05 09:22:12;;;;;;;41.90;16.45;;;;;;;;;;5100952;28;20016;-78
2022/03/05 09:24:38;;;;;;;35.92;15.77;;;;;;;;;;5105314;28;21516;-78
2022/03/05 09:27:04;;;;;;;47.67;18.83;;;;;;;;;;5103296;27;20139;-78
2022/03/05 09:29:30;;;;;;;40.38;16.48;;;;;;;;;;5098229;28;20039;-77
2022/03/05 09:31:55;;;;;;;55.33;24.88;;;;;;;;;;5095033;27;20020;-78
2022/03/05 09:34:21;;;;;;;49.45;21.73;;;;;;;;;;5094236;28;20022;-78
2022/03/05 09:36:46;;;;;;;40.47;18.92;;;;;;;;;;5083463;27;20032;-78
2022/03/05 09:39:11;;;;;;;45.35;18.33;;;;;;;;;;5077763;28;20574;-78
2022/03/05 09:41:40;;;;;;;46.30;17.27;;;;;;;;;;5077902;28;20456;-78
2022/03/05 09:44:06;;;;;;;29.30;11.13;;;;;;;;;;5087659;28;20408;-78
2022/03/05 09:46:32;;;;;;;46.83;17.63;;;;;;;;;;5100777;28;20026;-77
2022/03/05 09:48:58;;;;;;;45.17;18.92;;;;;;;;;;5098358;28;20122;-78
2022/03/05 09:51:24;;;;;;;43.90;17.88;;;;;;;;;;5100981;27;20028;-79
2022/03/05 09:53:54;;;;;;;45.83;18.85;;;;;;;;;;5093973;28;20038;-78
2022/03/05 09:56:19;;;;;;;44.55;18.70;;;;;;;;;;5092939;28;20092;-78
2022/03/05 09:58:48;;;;;;;53.85;19.15;;;;;;;;;;5098612;27;20051;-79
2022/03/05 10:01:15;;;;;;;50.63;18.50;;;;;;;;;;5096805;28;20114;-81
2022/03/05 10:03:44;;;;;;;46.13;18.63;;;;;;;;;;5092846;28;20055;-77
2022/03/05 10:06:18;;;;;;;48.50;17.92;;;;;;;;;;5106754;28;20105;-75
2022/03/05 10:08:44;;;;;;;47.88;18.30;;;;;;;;;;5102780;28;20035;-79
2022/03/05 10:11:11;;;;;;;52.90;20.55;;;;;;;;;;5103631;28;20065;-76
2022/03/05 10:13:39;;;;;;;48.10;18.92;;;;;;;;;;5107738;28;20103;-76
2022/03/05 10:16:20;;;;;;;80.75;26.95;;;;;;;;;;5074906;28;20032;-71
2022/03/05 10:18:46;;;;;;;49.70;19.27;;;;;;;;;;5072995;28;20054;-75
2022/03/05 10:21:12;;;;;;;41.17;17.25;;;;;;;;;;5073148;28;20028;-77
2022/03/05 10:23:40;;;;;;;45.70;17.42;;;;;;;;;;5086582;28;20043;-75
2022/03/05 10:26:07;;;;;;;41.95;18.05;;;;;;;;;;5083227;28;20039;-77
2022/03/05 10:28:33;;;;;;;50.75;18.70;;;;;;;;;;5083141;28;20028;-75
2022/03/05 10:31:02;;;;;;;42.85;17.17;;;;;;;;;;5073084;28;20209;-77
2022/03/05 10:33:35;;;;;;;43.92;17.85;;;;;;;;;;5080632;28;20059;-77
2022/03/05 10:36:16;;;;;;;37.83;16.02;;;;;;;;;;5073844;28;20040;-78
2022/03/05 10:38:42;;;;;;;44.58;18.40;;;;;;;;;;5074388;28;20052;-81
2022/03/05 10:41:08;;;;;;;43.92;18.27;;;;;;;;;;5080708;28;20094;-81
2022/03/05 10:43:33;;;;;;;50.63;19.65;;;;;;;;;;5083844;28;20032;-80
2022/03/05 10:45:58;;;;;;;53.60;21.42;;;;;;;;;;5087009;28;20030;-77
2022/03/05 10:48:31;;;;;;;45.72;19.95;;;;;;;;;;5094354;28;20612;-75
2022/03/05 10:51:09;;;;;;;48.53;19.95;;;;;;;;;;5089494;27;20028;-75
2022/03/05 10:53:44;;;;;;;49.13;20.30;;;;;;;;;;5101397;27;20520;-75
2022/03/05 10:56:33;;;;;;;46.40;19.15;;;;;;;;;;5081070;28;20081;-75
2022/03/05 10:59:09;;;;;;;54.53;23.00;;;;;;;;;;5097935;27;20051;-77
2022/03/05 11:01:43;;;;;;;54.65;23.15;;;;;;;;;;5085651;28;20020;-77
2022/03/05 11:04:11;;;;;;;58.65;22.33;;;;;;;;;;5081480;28;20050;-77
2022/03/05 11:06:42;;;;;;;46.47;20.02;;;;;;;;;;5083627;28;20028;-77
2022/03/05 11:09:10;;;;;;;56.80;21.95;;;;;;;;;;5099156;27;20035;-78
2022/03/05 11:11:40;;;;;;;52.42;21.48;;;;;;;;;;5101890;27;20100;-77
2022/03/05 11:14:07;;;;;;;50.60;21.58;;;;;;;;;;5104621;27;20081;-77
2022/03/05 11:16:33;;;;;;;48.22;20.33;;;;;;;;;;5099876;28;20459;-77
2022/03/05 11:18:58;;;;;;;54.70;23.05;;;;;;;;;;5098203;27;20035;-77
2022/03/05 11:21:28;;;;;;;54.38;21.73;;;;;;;;;;5103745;27;20032;-77
2022/03/05 11:23:55;;;;;;;54.72;21.80;;;;;;;;;;5102700;27;20039;-75
2022/03/05 11:26:21;;;;;;;54.75;22.77;;;;;;;;;;5106452;27;20028;-76
2022/03/05 11:28:48;;;;;;;49.72;20.80;;;;;;;;;;5107316;27;20023;-75
2022/03/05 11:31:15;;;;;;;52.50;21.85;;;;;;;;;;5105179;28;20548;-78
2022/03/05 11:33:43;;;;;;;47.78;19.08;;;;;;;;;;5103458;27;20036;-80
2022/03/05 11:36:41;;;;;;;48.28;19.92;;;;;;;;;;5096195;27;20081;-77
2022/03/05 11:39:19;;;;;;;49.53;19.77;;;;;;;;;;5081258;27;20047;-73
2022/03/05 11:42:03;;;;;;;50.25;19.35;;;;;;;;;;5076089;28;20088;-74
2022/03/05 11:44:29;;;;;;;50.22;20.88;;;;;;;;;;5089482;28;20417;-74
2022/03/05 11:47:31;;;;;;;42.88;17.85;;;;;;;;;;5079135;27;20031;-77
2022/03/05 11:49:56;;;;;;;48.80;20.58;;;;;;;;;;5078156;27;20015;-78
2022/03/05 11:52:22;;;;;;;48.35;20.00;;;;;;;;;;5104114;27;20046;-78
2022/03/05 11:55:14;;;;;;;46.58;19.55;;;;;;;;;;5102001;27;20040;-81
2022/03/05 11:57:51;;;;;;;51.20;22.00;;;;;;;;;;5109069;27;20138;-76
2022/03/05 12:00:34;;;;;;;51.45;20.55;;;;;;;;;;5102172;27;20034;-76
2022/03/05 12:03:00;;;;;;;48.83;20.98;;;;;;;;;;5102967;27;20058;-76
2022/03/05 12:05:38;;;;;;;51.83;22.45;;;;;;;;;;5103407;27;20031;-75
2022/03/05 12:08:11;;;;;;;50.08;19.15;;;;;;;;;;5099619;27;20655;-76
2022/03/05 12:10:38;;;;;;;45.83;19.83;;;;;;;;;;5103530;28;20031;-76
2022/03/05 12:13:04;;;;;;;40.33;19.05;;;;;;;;;;5107352;27;20488;-76
2022/03/05 12:15:41;;;;;;;43.20;18.85;;;;;;;;;;5095207;27;20110;-76
2022/03/05 12:18:10;;;;;;;47.50;18.80;;;;;;;;;;5098122;27;20055;-76
2022/03/05 12:20:38;;;;;;;50.80;22.83;;;;;;;;;;5098790;27;20062;-76
2022/03/05 12:23:06;;;;;;;53.92;21.25;;;;;;;;;;5103516;27;20050;-76
2022/03/05 12:25:33;;;;;;;50.22;22.15;;;;;;;;;;5092664;27;20185;-75
2022/03/05 12:27:59;;;;;;;46.72;19.05;;;;;;;;;;5074883;28;20055;-76
2022/03/05 12:30:33;;;;;;;45.88;20.77;;;;;;;;;;5079064;28;20167;-76
2022/03/05 12:33:00;;;;;;;50.75;21.95;;;;;;;;;;5081371;28;20087;-76
2022/03/05 12:35:27;;;;;;;43.90;19.73;;;;;;;;;;5086010;28;20050;-74
2022/03/05 12:37:53;;;;;;;42.72;19.67;;;;;;;;;;5077325;28;20032;-79
2022/03/05 12:40:18;;;;;;;52.90;23.55;;;;;;;;;;5083508;28;20031;-76
2022/03/05 12:42:46;;;;;;;50.38;22.70;;;;;;;;;;5079936;28;20048;-79
2022/03/05 12:45:26;;;;;;;42.25;19.05;;;;;;;;;;5073364;28;20040;-75
2022/03/05 12:47:54;;;;;;;46.17;18.30;;;;;;;;;;5070718;28;20092;-75
2022/03/05 12:50:36;;;;;;;40.45;17.30;;;;;;;;;;5075445;27;20036;-82
2022/03/05 12:53:16;;;;;;;48.33;18.17;;;;;;;;;;5075839;27;20044;-81
2022/03/05 12:55:44;;;;;;;43.88;17.35;;;;;;;;;;5068747;27;20039;-75
2022/03/05 12:58:31;;;;;;;38.33;16.58;;;;;;;;;;5083138;28;20166;-81
2022/03/05 13:01:05;;;;;;;39.15;16.73;;;;;;;;;;5072925;28;20032;-79
2022/03/05 13:03:31;;;;;;;68.50;45.20;;;;;;;;;;5079571;27;20920;-79
2022/03/05 13:05:57;;;;;;;31.52;12.82;;;;;;;;;;5091671;27;20057;-76
2022/03/05 13:08:24;;;;;;;25.05;10.90;;;;;;;;;;5079642;27;20048;-80
2022/03/05 13:11:18;;;;;;;26.02;11.30;;;;;;;;;;5081930;27;20032;-79
2022/03/05 13:13:48;;;;;;;24.98;11.45;;;;;;;;;;5090143;27;20039;-77
2022/03/05 13:16:29;;;;;;;32.00;13.85;;;;;;;;;;5103601;28;20015;-76
2022/03/05 13:19:03;;;;;;;29.55;12.77;;;;;;;;;;5115066;27;20047;-77
2022/03/05 13:21:30;;;;;;;29.45;12.43;;;;;;;;;;5096498;28;20036;-75
2022/03/05 13:23:55;;;;;;;24.23;10.73;;;;;;;;;;5097427;27;20032;-75
2022/03/05 13:26:22;;;;;;;29.88;14.60;;;;;;;;;;5118302;27;20028;-79
2022/03/05 13:28:49;;;;;;;34.38;15.15;;;;;;;;;;5098360;28;20042;-76
2022/03/05 13:31:15;;;;;;;31.88;13.85;;;;;;;;;;5102532;28;20031;-77
2022/03/05 13:33:43;;;;;;;36.35;15.52;;;;;;;;;;5094699;27;20045;-83
2022/03/05 13:36:29;;;;;;;32.20;14.68;;;;;;;;;;5101100;28;20096;-75
2022/03/05 13:39:07;;;;;;;35.95;16.02;;;;;;;;;;5102786;28;20042;-76
2022/03/05 13:41:33;;;;;;;32.15;13.52;;;;;;;;;;5097494;27;20042;-77
2022/03/05 13:44:01;;;;;;;35.85;16.10;;;;;;;;;;5103732;27;20036;-77
2022/03/05 13:46:28;;;;;;;36.75;16.67;;;;;;;;;;5095880;28;20023;-76
2022/03/05 13:48:55;;;;;;;40.63;17.27;;;;;;;;;;5106846;27;20401;-75
2022/03/05 13:51:24;;;;;;;44.22;17.30;;;;;;;;;;5109689;27;20035;-76
2022/03/05 13:53:57;;;;;;;39.45;17.90;;;;;;;;;;5103860;28;20039;-75
2022/03/05 13:56:23;;;;;;;;;;;;;;;;;;5106004;27;20560;-75
2022/03/05 13:58:56;;;;;;;39.38;18.17;;;;;;;;;;5097881;27;19927;-76
2022/03/05 14:01:36;;;;;;;44.22;19.23;;;;;;;;;;5102026;28;20019;-73
2022/03/05 14:04:10;;;;;;;44.50;18.23;;;;;;;;;;5093692;28;20027;-72
2022/03/05 14:06:48;;;;;;;;;;;;;;;;;;5106458;27;20531;-72
2022/03/05 14:09:19;;;;;;;41.20;17.92;;;;;;;;;;5104986;28;20423;-73
2022/03/05 14:11:44;;;;;;;42.72;17.92;;;;;;;;;;5102533;27;20039;-73
2022/03/05 14:14:09;;;;;;;39.75;16.95;;;;;;;;;;5104778;27;20042;-75
2022/03/05 14:16:36;;;;;;;43.60;19.15;;;;;;;;;;5099768;27;20020;-76
2022/03/05 14:19:02;;;;;;;44.88;18.00;;;;;;;;;;5106930;27;20039;-78
2022/03/05 14:21:28;;;;;;;41.78;18.35;;;;;;;;;;5099413;27;20019;-75
2022/03/05 14:23:53;;;;;;;38.13;17.75;;;;;;;;;;5090166;27;20104;-75